createdAt,value
2022-11-03T00:02:09.783Z,5.97
2022-11-03T00:04:37.232Z,4.90
2022-11-03T00:07:04.677Z,5.88
2022-11-03T00:09:32.633Z,6.28
2022-11-03T00:12:00.248Z,5.95
2022-11-03T00:14:28.059Z,5.82
2022-11-03T00:16:55.906Z,5.00
2022-11-03T00:19:23.209Z,6.00
2022-11-03T00:21:50.636Z,6.28
2022-11-03T00:24:18.180Z,8.18
2022-11-03T00:26:45.816Z,5.07
2022-11-03T00:29:15.208Z,6.10
2022-11-03T00:31:44.783Z,8.35
2022-11-03T00:34:13.121Z,5.78
2022-11-03T00:36:45.459Z,5.90
2022-11-03T00:39:13.495Z,5.70
2022-11-03T00:41:41.531Z,5.35
2022-11-03T00:44:10.829Z,5.97
2022-11-03T00:46:38.424Z,6.13
2022-11-03T00:49:06.576Z,6.07
2022-11-03T00:51:37.019Z,4.13
2022-11-03T00:54:07.544Z,4.45
2022-11-03T00:56:44.418Z,4.32
2022-11-03T00:59:11.858Z,3.95
2022-11-03T01:01:47.331Z,3.72
2022-11-03T01:04:35.242Z,5.18
2022-11-03T01:07:04.341Z,3.88
2022-11-03T01:09:41.145Z,4.80
2022-11-03T01:12:11.741Z,3.58
2022-11-03T01:14:47.850Z,4.53
2022-11-03T01:17:25.016Z,3.50
2022-11-03T01:19:53.036Z,4.50
2022-11-03T01:22:21.944Z,4.03
2022-11-03T01:24:49.864Z,3.25
2022-11-03T01:27:20.516Z,3.25
2022-11-03T01:29:47.896Z,3.80
2022-11-03T01:32:15.498Z,3.85
2022-11-03T01:34:42.768Z,3.95
2022-11-03T01:37:10.244Z,10.13
2022-11-03T01:39:37.529Z,5.00
2022-11-03T01:42:05.015Z,4.20
2022-11-03T01:44:49.179Z,2.97
2022-11-03T01:47:42.650Z,3.45
2022-11-03T01:50:18.478Z,3.78
2022-11-03T01:52:53.054Z,5.70
2022-11-03T01:55:28.654Z,3.63
2022-11-03T01:58:07.817Z,3.50
2022-11-03T02:00:36.636Z,2.20
2022-11-03T02:03:04.844Z,5.38
2022-11-03T02:05:32.526Z,3.38
2022-11-03T02:10:41.489Z,3.17
2022-11-03T02:13:22.150Z,2.78
2022-11-03T02:15:53.493Z,3.25
2022-11-03T02:18:28.463Z,4.60
2022-11-03T02:21:30.803Z,1.92
2022-11-03T02:24:49.905Z,5.45
2022-11-03T02:27:21.717Z,2.63
2022-11-03T02:29:49.772Z,3.15
2022-11-03T02:32:26.406Z,2.13
2022-11-03T02:35:12.773Z,4.60
2022-11-03T02:37:47.658Z,3.05
2022-11-03T02:43:04.732Z,3.33
2022-11-03T02:45:32.897Z,5.43
2022-11-03T02:48:03.279Z,4.95
2022-11-03T02:50:34.251Z,2.90
2022-11-03T02:53:02.411Z,3.55
2022-11-03T02:56:00.354Z,2.90
2022-11-03T02:58:59.636Z,4.90
2022-11-03T03:01:47.464Z,2.35
2022-11-03T03:04:40.139Z,3.08
2022-11-03T03:07:30.800Z,2.70
2022-11-03T03:10:29.383Z,2.65
2022-11-03T03:12:59.324Z,3.05
2022-11-03T03:15:57.270Z,2.88
2022-11-03T03:18:37.596Z,2.63
2022-11-03T03:21:26.387Z,2.67
2022-11-03T03:24:40.581Z,3.92
2022-11-03T03:27:11.470Z,2.80
2022-11-03T03:29:56.881Z,2.80
2022-11-03T03:32:27.285Z,3.25
2022-11-03T03:34:56.301Z,2.08
2022-11-03T03:37:26.557Z,3.50
2022-11-03T03:39:59.926Z,3.67
2022-11-03T03:42:30.755Z,2.38
2022-11-03T03:44:59.585Z,3.08
2022-11-03T03:47:33.039Z,4.00
2022-11-03T03:50:02.186Z,2.83
2022-11-03T03:52:30.777Z,2.35
2022-11-03T03:54:58.256Z,2.80
2022-11-03T03:57:28.629Z,2.63
2022-11-03T03:59:56.188Z,2.20
2022-11-03T04:02:23.426Z,2.50
2022-11-03T04:04:51.010Z,2.47
2022-11-03T04:07:42.411Z,2.70
2022-11-03T04:10:11.812Z,3.42
2022-11-03T04:13:00.901Z,2.08
2022-11-03T04:15:47.681Z,2.63
2022-11-03T04:18:33.935Z,2.88
2022-11-03T04:21:20.075Z,2.78
2022-11-03T04:23:47.434Z,3.80
2022-11-03T04:26:17.622Z,3.83
2022-11-03T04:28:46.147Z,2.80
2022-11-03T04:31:15.793Z,2.67
2022-11-03T04:33:43.986Z,3.83
2022-11-03T04:36:25.917Z,3.03
2022-11-03T04:38:53.711Z,4.93
2022-11-03T04:41:28.232Z,4.72
2022-11-03T04:43:57.191Z,2.05
2022-11-03T04:46:29.930Z,3.95
2022-11-03T04:49:01.229Z,3.90
2022-11-03T04:51:31.815Z,4.60
2022-11-03T04:54:16.711Z,3.70
2022-11-03T04:56:44.209Z,5.43
2022-11-03T04:59:16.698Z,6.40
2022-11-03T05:01:45.774Z,4.72
2022-11-03T05:04:18.546Z,4.40
2022-11-03T05:06:51.776Z,4.22
2022-11-03T05:09:27.843Z,3.60
2022-11-03T05:11:55.389Z,3.10
2022-11-03T05:14:32.453Z,3.13
2022-11-03T05:17:02.346Z,4.30
2022-11-03T05:19:34.631Z,3.45
2022-11-03T05:22:04.235Z,3.00
2022-11-03T05:24:33.250Z,3.75
2022-11-03T05:27:00.941Z,2.80
2022-11-03T05:29:38.860Z,5.65
2022-11-03T05:32:22.165Z,4.15
2022-11-03T05:34:54.672Z,3.78
2022-11-03T05:37:27.527Z,5.45
2022-11-03T05:40:10.415Z,4.90
2022-11-03T05:42:42.602Z,7.40
2022-11-03T05:45:23.885Z,5.18
2022-11-03T05:47:55.922Z,3.38
2022-11-03T05:50:29.799Z,9.18
2022-11-03T05:53:22.763Z,5.53
2022-11-03T05:55:50.231Z,7.85
2022-11-03T05:58:40.382Z,7.13
2022-11-03T06:01:41.064Z,12.23
2022-11-03T06:04:29.694Z,5.30
2022-11-03T06:07:03.926Z,8.60
2022-11-03T06:09:34.973Z,8.73
2022-11-03T06:12:06.305Z,10.00
2022-11-03T06:14:36.756Z,6.93
2022-11-03T06:17:20.815Z,5.65
2022-11-03T06:19:49.889Z,8.43
2022-11-03T06:22:30.292Z,7.38
2022-11-03T06:25:17.116Z,11.57
2022-11-03T06:27:44.365Z,11.55
2022-11-03T06:33:21.620Z,6.78
2022-11-03T06:35:52.072Z,6.53
2022-11-03T06:38:27.278Z,9.75
2022-11-03T06:40:54.789Z,6.75
2022-11-03T06:43:28.941Z,11.05
2022-11-03T06:45:59.445Z,6.93
2022-11-03T06:48:33.420Z,6.55
2022-11-03T06:51:01.873Z,7.78
2022-11-03T06:53:33.393Z,8.25
2022-11-03T06:56:01.275Z,6.22
2022-11-03T06:58:36.833Z,3.42
2022-11-03T07:01:34.121Z,7.95
2022-11-03T07:04:24.177Z,5.25
2022-11-03T07:06:53.556Z,5.50
2022-11-03T07:09:26.219Z,4.38
2022-11-03T07:12:00.081Z,7.40
2022-11-03T07:14:29.764Z,11.40
2022-11-03T07:17:15.611Z,7.93
2022-11-03T07:19:45.970Z,9.95
2022-11-03T07:22:20.311Z,7.32
2022-11-03T07:24:50.772Z,5.07
2022-11-03T07:27:26.873Z,6.15
2022-11-03T07:30:00.363Z,6.00
2022-11-03T07:32:34.014Z,6.65
2022-11-03T07:36:00.355Z,7.20
2022-11-03T07:38:24.924Z,10.82
2022-11-03T07:40:57.235Z,4.55
2022-11-03T07:43:34.991Z,4.05
2022-11-03T07:46:04.360Z,5.70
2022-11-03T07:48:52.290Z,6.03
2022-11-03T07:51:35.019Z,5.03
2022-11-03T07:54:08.516Z,5.20
2022-11-03T07:56:45.588Z,5.68
2022-11-03T07:59:19.747Z,5.78
2022-11-03T08:01:54.462Z,6.57
2022-11-03T08:04:26.159Z,7.93
2022-11-03T08:06:53.939Z,9.38
2022-11-03T08:09:22.038Z,4.07
2022-11-03T08:11:51.380Z,6.72
2022-11-03T08:14:18.992Z,3.60
2022-11-03T08:16:46.849Z,6.63
2022-11-03T08:19:14.339Z,7.80
2022-11-03T08:21:41.676Z,9.30
2022-11-03T08:24:09.014Z,5.80
2022-11-03T08:26:36.208Z,7.20
2022-11-03T08:29:03.690Z,7.43
2022-11-03T08:31:30.961Z,9.18
2022-11-03T08:33:58.503Z,13.30
2022-11-03T08:36:26.016Z,13.88
2022-11-03T08:38:53.603Z,10.70
2022-11-03T08:41:21.039Z,9.23
2022-11-03T08:43:48.400Z,10.02
2022-11-03T08:46:17.992Z,7.65
2022-11-03T08:48:47.147Z,12.05
2022-11-03T08:51:16.391Z,5.22
2022-11-03T08:53:44.514Z,9.00
2022-11-03T08:56:15.068Z,9.50
2022-11-03T08:58:44.486Z,9.38
2022-11-03T09:01:12.457Z,11.40
2022-11-03T09:03:41.242Z,17.27
2022-11-03T09:06:09.585Z,14.00
2022-11-03T09:11:24.441Z,12.27
2022-11-03T09:13:51.727Z,11.57
2022-11-03T09:16:19.148Z,11.88
2022-11-03T09:18:46.705Z,10.35
2022-11-03T09:21:15.098Z,6.75
2022-11-03T09:23:42.604Z,12.07
2022-11-03T09:26:10.003Z,15.00
2022-11-03T09:28:37.272Z,8.88
2022-11-03T09:31:04.718Z,7.15
2022-11-03T09:33:32.640Z,9.85
2022-11-03T09:36:01.732Z,11.10
2022-11-03T09:38:29.465Z,9.88
2022-11-03T09:40:57.648Z,7.93
2022-11-03T09:43:25.131Z,8.68
2022-11-03T09:45:53.828Z,11.10
2022-11-03T09:48:21.274Z,10.95
2022-11-03T09:50:53.656Z,11.27
2022-11-03T09:53:21.858Z,8.88
2022-11-03T09:55:49.291Z,11.68
2022-11-03T09:58:18.708Z,14.18
2022-11-03T10:00:46.529Z,10.43
2022-11-03T10:03:17.285Z,10.85
2022-11-03T10:05:46.044Z,9.88
2022-11-03T10:08:32.668Z,7.03
2022-11-03T10:11:02.480Z,9.02
2022-11-03T10:13:34.559Z,10.68
2022-11-03T10:16:06.997Z,7.20
2022-11-03T10:18:36.174Z,14.30
2022-11-03T10:21:26.963Z,9.43
2022-11-03T10:23:54.376Z,9.68
2022-11-03T10:26:22.239Z,7.50
2022-11-03T10:29:06.143Z,7.60
2022-11-03T10:31:39.715Z,10.90
2022-11-03T10:34:25.013Z,13.38
2022-11-03T10:39:55.457Z,11.95
2022-11-03T10:42:34.942Z,8.25
2022-11-03T10:45:29.702Z,12.20
2022-11-03T10:48:09.726Z,10.63
2022-11-03T10:50:42.275Z,11.05
2022-11-03T10:53:18.766Z,16.90
2022-11-03T10:55:46.838Z,16.98
2022-11-03T10:58:14.511Z,17.02
2022-11-03T11:00:43.247Z,18.63
2022-11-03T11:03:16.468Z,16.73
2022-11-03T11:05:48.822Z,13.93
2022-11-03T11:08:23.306Z,15.10
2022-11-03T11:10:50.889Z,13.55
2022-11-03T11:13:19.117Z,12.27
2022-11-03T11:15:55.691Z,9.35
2022-11-03T11:18:29.267Z,13.55
2022-11-03T11:21:24.768Z,12.40
2022-11-03T11:23:54.549Z,7.70
2022-11-03T11:26:35.394Z,13.15
2022-11-03T11:29:09.096Z,12.00
2022-11-03T11:31:43.864Z,18.50
2022-11-03T11:34:20.290Z,9.43
2022-11-03T11:37:07.839Z,16.38
2022-11-03T11:39:44.340Z,9.63
2022-11-03T11:42:19.556Z,14.77
2022-11-03T11:44:59.375Z,17.27
2022-11-03T11:47:49.373Z,16.00
2022-11-03T11:50:22.287Z,14.23
2022-11-03T11:53:08.190Z,8.32
2022-11-03T11:55:43.010Z,16.40
2022-11-03T11:58:33.438Z,15.18
2022-11-03T12:01:24.513Z,11.00
2022-11-03T12:03:55.255Z,14.23
2022-11-03T12:06:52.107Z,11.27
2022-11-03T12:09:29.589Z,14.05
2022-11-03T12:12:03.479Z,11.25
2022-11-03T12:14:40.893Z,12.60
2022-11-03T12:17:17.452Z,9.07
2022-11-03T12:19:53.516Z,8.73
2022-11-03T12:22:26.989Z,11.15
2022-11-03T12:25:01.801Z,7.07
2022-11-03T12:27:29.304Z,14.85
2022-11-03T12:30:00.221Z,15.32
2022-11-03T12:32:35.857Z,11.00
2022-11-03T12:35:06.028Z,8.63
2022-11-03T12:37:33.645Z,15.05
2022-11-03T12:40:00.952Z,11.63
2022-11-03T12:42:28.445Z,10.43
2022-11-03T12:44:56.207Z,9.32
2022-11-03T12:47:23.747Z,11.85
2022-11-03T12:49:51.209Z,9.07
2022-11-03T12:52:18.672Z,8.07
2022-11-03T12:54:46.261Z,15.02
2022-11-03T12:57:14.133Z,10.07
2022-11-03T12:59:41.919Z,11.45
2022-11-03T13:02:12.121Z,19.20
2022-11-03T13:04:39.775Z,12.15
2022-11-03T13:07:07.202Z,9.90
2022-11-03T13:09:36.201Z,9.80
2022-11-03T13:12:22.375Z,12.75
2022-11-03T13:14:49.683Z,12.60
2022-11-03T13:17:17.256Z,14.75
2022-11-03T13:19:44.694Z,21.85
2022-11-03T13:22:12.165Z,12.30
2022-11-03T13:24:39.483Z,15.18
2022-11-03T13:27:06.968Z,16.35
2022-11-03T13:29:35.855Z,13.73
2022-11-03T13:32:04.866Z,13.82
2022-11-03T13:34:32.601Z,18.15
2022-11-03T13:37:00.166Z,10.23
2022-11-03T13:39:27.934Z,27.85
2022-11-03T13:41:55.696Z,24.33
2022-11-03T13:44:23.129Z,23.67
2022-11-03T13:46:51.357Z,20.35
2022-11-03T13:52:06.387Z,26.88
2022-11-03T14:00:17.091Z,19.35
2022-11-03T14:05:32.179Z,21.95
2022-11-03T14:07:59.613Z,14.88
2022-11-03T14:10:27.206Z,26.02
2022-11-03T14:12:54.714Z,16.75
2022-11-03T14:15:22.384Z,15.93
2022-11-03T14:17:49.719Z,13.43
2022-11-03T14:20:17.205Z,13.95
2022-11-03T14:22:44.646Z,20.38
2022-11-03T14:25:12.388Z,23.38
2022-11-03T14:27:39.935Z,19.08
2022-11-03T14:30:08.477Z,12.85
2022-11-03T14:32:35.946Z,15.07
2022-11-03T14:35:03.831Z,15.27
2022-11-03T14:37:31.637Z,17.33
2022-11-03T14:39:59.334Z,14.77
2022-11-03T14:42:26.930Z,14.45
2022-11-03T14:44:55.054Z,18.45
2022-11-03T14:47:22.592Z,15.52
2022-11-03T14:49:50.476Z,18.65
2022-11-03T14:52:18.109Z,11.93
2022-11-03T14:54:45.778Z,15.57
2022-11-03T14:57:13.508Z,17.17
2022-11-03T14:59:41.131Z,18.42
2022-11-03T15:02:09.360Z,7.00
2022-11-03T15:04:36.802Z,11.95
2022-11-03T15:07:04.207Z,16.08
2022-11-03T15:09:31.464Z,10.57
2022-11-03T15:11:59.023Z,21.30
2022-11-03T15:14:26.856Z,13.38
2022-11-03T15:16:54.303Z,12.68
2022-11-03T15:19:21.685Z,12.57
2022-11-03T15:21:49.751Z,22.52
2022-11-03T15:27:05.100Z,16.00
2022-11-03T15:29:32.466Z,18.48
2022-11-03T15:31:59.637Z,9.73
2022-11-03T15:34:27.080Z,20.73
2022-11-03T15:36:54.849Z,23.17
2022-11-03T15:39:22.277Z,17.95
2022-11-03T15:41:49.574Z,18.13
2022-11-03T15:44:17.033Z,21.92
2022-11-03T15:46:46.956Z,18.17
2022-11-03T15:49:14.339Z,20.55
2022-11-03T15:51:41.874Z,12.30
2022-11-03T15:54:09.131Z,17.73
2022-11-03T15:56:36.782Z,19.98
2022-11-03T15:59:05.005Z,23.98
2022-11-03T16:01:32.652Z,15.95
2022-11-03T16:04:02.560Z,14.52
2022-11-03T16:09:17.684Z,16.45
2022-11-03T16:11:46.619Z,18.73
2022-11-03T16:14:15.223Z,13.82
2022-11-03T16:16:42.757Z,21.38
2022-11-03T16:19:10.588Z,13.60
2022-11-03T16:21:38.688Z,18.42
2022-11-03T16:24:06.622Z,13.27
2022-11-03T16:26:34.243Z,13.82
2022-11-03T16:29:01.863Z,16.27
2022-11-03T16:31:29.318Z,11.77
2022-11-03T16:33:56.792Z,14.70
2022-11-03T16:36:24.288Z,11.00
2022-11-03T16:38:53.842Z,12.40
2022-11-03T16:41:21.501Z,15.93
2022-11-03T16:43:50.027Z,19.92
2022-11-03T16:46:17.337Z,18.50
2022-11-03T16:48:44.640Z,16.33
2022-11-03T16:51:11.861Z,22.92
2022-11-03T16:53:39.529Z,23.75
2022-11-03T16:56:07.270Z,28.92
2022-11-03T16:58:34.788Z,23.85
2022-11-03T17:01:02.341Z,15.45
2022-11-03T17:03:30.053Z,14.05
2022-11-03T17:05:58.186Z,23.33
2022-11-03T17:08:51.376Z,24.65
2022-11-03T17:11:13.649Z,14.68
2022-11-03T17:13:41.026Z,10.77
2022-11-03T17:16:08.752Z,19.67
2022-11-03T17:18:36.873Z,18.45
2022-11-03T17:21:04.871Z,12.80
2022-11-03T17:23:32.648Z,15.65
2022-11-03T17:26:02.667Z,13.52
2022-11-03T17:28:30.400Z,10.52
2022-11-03T17:30:58.063Z,16.88
2022-11-03T17:33:25.598Z,15.52
2022-11-03T17:35:53.416Z,8.73
2022-11-03T17:38:28.350Z,13.55
2022-11-03T17:40:55.932Z,14.52
2022-11-03T17:43:31.565Z,10.65
2022-11-03T17:45:58.975Z,15.38
2022-11-03T17:48:26.470Z,18.33
2022-11-03T17:50:56.649Z,17.30
2022-11-03T17:53:31.625Z,12.70
2022-11-03T17:58:47.606Z,13.15
2022-11-03T18:01:27.634Z,10.50
2022-11-03T18:03:55.493Z,14.75
2022-11-03T18:06:23.183Z,10.25
2022-11-03T18:08:50.979Z,10.55
2022-11-03T18:11:46.129Z,7.93
2022-11-03T18:14:14.319Z,12.50
2022-11-03T18:16:42.080Z,13.38
2022-11-03T18:19:14.556Z,10.45
2022-11-03T18:21:43.031Z,12.15
2022-11-03T18:24:13.775Z,14.43
2022-11-03T18:26:41.840Z,17.30
2022-11-03T18:29:15.299Z,16.67
2022-11-03T18:31:50.956Z,6.57
2022-11-03T18:34:25.505Z,14.10
2022-11-03T18:36:53.433Z,11.90
2022-11-03T18:39:27.527Z,11.13
2022-11-03T18:41:55.719Z,16.77
2022-11-03T18:44:29.337Z,12.88
2022-11-03T18:46:58.409Z,10.75
2022-11-03T18:49:27.659Z,13.75
2022-11-03T18:52:03.389Z,7.93
2022-11-03T18:54:33.584Z,16.77
2022-11-03T18:57:01.750Z,15.82
2022-11-03T18:59:37.733Z,8.70
2022-11-03T19:02:23.937Z,20.90
2022-11-03T19:04:52.324Z,31.80
2022-11-03T19:07:29.261Z,25.10
2022-11-03T19:09:56.935Z,26.92
2022-11-03T19:12:24.710Z,25.25
2022-11-03T19:14:52.223Z,29.23
2022-11-03T19:17:23.819Z,24.63
2022-11-03T19:19:54.459Z,19.35
2022-11-03T19:22:23.819Z,15.07
2022-11-03T19:24:51.476Z,13.50
2022-11-03T19:27:28.107Z,9.95
2022-11-03T19:29:57.777Z,16.00
2022-11-03T19:32:30.583Z,9.07
2022-11-03T19:35:02.645Z,11.85
2022-11-03T19:37:35.394Z,15.52
2022-11-03T19:40:09.189Z,13.60
2022-11-03T19:42:37.266Z,26.40
2022-11-03T19:45:24.630Z,11.60
2022-11-03T19:50:50.531Z,10.45
2022-11-03T19:53:28.174Z,10.63
2022-11-03T19:55:56.878Z,12.60
2022-11-03T19:58:28.063Z,11.35
2022-11-03T20:00:56.672Z,8.70
2022-11-03T20:03:25.514Z,13.10
2022-11-03T20:05:56.820Z,14.65
2022-11-03T20:08:30.030Z,18.45
2022-11-03T20:10:57.492Z,13.95
2022-11-03T20:13:37.988Z,8.63
2022-11-03T20:16:16.065Z,9.35
2022-11-03T20:18:44.119Z,16.33
2022-11-03T20:21:20.390Z,7.55
2022-11-03T20:23:49.898Z,13.15
2022-11-03T20:26:22.970Z,13.70
2022-11-03T20:28:51.443Z,7.97
2022-11-03T20:31:19.604Z,8.05
2022-11-03T20:33:47.262Z,7.88
2022-11-03T20:36:18.471Z,6.80
2022-11-03T20:38:59.260Z,16.67
2022-11-03T20:41:33.971Z,7.10
2022-11-03T20:44:01.485Z,5.65
2022-11-03T20:46:35.951Z,8.43
2022-11-03T20:49:03.946Z,7.13
2022-11-03T20:51:47.299Z,8.65
2022-11-03T20:54:20.588Z,10.70
2022-11-03T20:56:48.705Z,7.13
2022-11-03T20:59:18.106Z,3.90
2022-11-03T21:01:46.038Z,10.52
2022-11-03T21:04:15.823Z,9.60
2022-11-03T21:06:44.314Z,5.53
2022-11-03T21:09:14.778Z,10.07
2022-11-03T21:11:43.747Z,9.27
2022-11-03T21:14:18.720Z,7.32
2022-11-03T21:17:04.723Z,10.25
2022-11-03T21:19:42.541Z,7.00
2022-11-03T21:25:17.614Z,6.88
2022-11-03T21:27:45.876Z,5.03
2022-11-03T21:30:15.704Z,10.70
2022-11-03T21:32:43.835Z,3.83
2022-11-03T21:35:18.170Z,4.18
2022-11-03T21:37:45.717Z,6.25
2022-11-03T21:40:13.454Z,3.95
2022-11-03T21:42:59.689Z,5.47
2022-11-03T21:45:27.213Z,6.40
2022-11-03T21:48:14.747Z,5.43
2022-11-03T21:50:45.186Z,6.40
2022-11-03T21:53:12.980Z,3.83
2022-11-03T21:55:40.931Z,4.95
2022-11-03T21:58:08.741Z,4.78
2022-11-03T22:00:36.411Z,9.85
2022-11-03T22:03:04.082Z,6.28
2022-11-03T22:05:31.870Z,4.65
2022-11-03T22:07:59.341Z,5.10
2022-11-03T22:10:26.885Z,8.95
2022-11-03T22:12:54.450Z,5.50
2022-11-03T22:15:40.792Z,4.35
2022-11-03T22:18:08.720Z,8.68
2022-11-03T22:20:58.021Z,4.93
2022-11-03T22:23:44.386Z,8.73
2022-11-03T22:26:35.643Z,8.68
2022-11-03T22:29:23.199Z,6.28
2022-11-03T22:31:50.734Z,7.97
2022-11-03T22:34:36.483Z,5.28
2022-11-03T22:37:03.905Z,6.20
2022-11-03T22:39:50.060Z,6.20
2022-11-03T22:42:36.044Z,7.35
2022-11-03T22:45:23.432Z,6.97
2022-11-03T22:47:57.869Z,5.65
2022-11-03T22:50:25.507Z,7.53
2022-11-03T22:52:53.094Z,4.55
2022-11-03T22:55:20.721Z,6.70
2022-11-03T22:57:48.206Z,8.88
2022-11-03T23:00:16.592Z,4.88
2022-11-03T23:02:44.428Z,4.35
2022-11-03T23:05:11.854Z,4.03
2022-11-03T23:07:41.890Z,7.10
2022-11-03T23:10:10.164Z,5.43
2022-11-03T23:12:37.610Z,5.22
2022-11-03T23:15:24.113Z,9.95
2022-11-03T23:18:10.155Z,9.85
2022-11-03T23:20:57.419Z,5.97
2022-11-03T23:23:43.614Z,8.15
2022-11-03T23:26:11.383Z,5.90
2022-11-03T23:28:39.079Z,7.13
2022-11-03T23:31:06.975Z,9.88
2022-11-03T23:33:35.775Z,7.68
2022-11-03T23:36:14.286Z,12.18
2022-11-03T23:38:43.036Z,7.50
2022-11-03T23:41:17.175Z,8.43
2022-11-03T23:43:46.161Z,4.53
2022-11-03T23:46:36.920Z,5.20
2022-11-03T23:49:05.184Z,5.00
2022-11-03T23:51:34.776Z,6.15
2022-11-03T23:54:04.272Z,4.38
2022-11-03T23:56:56.037Z,8.35
2022-11-03T23:59:24.778Z,5.32
